sensor_id;sensor_type;location;lat;lon;timestamp;temperature;humidity
21540;DHT22;10931;52.164;5.518;2022-08-19T01:26:51;28.50;60.90
21540;DHT22;10931;52.164;5.518;2022-08-19T01:29:17;28.50;60.90
21540;DHT22;10931;52.164;5.518;2022-08-19T01:31:43;28.50;60.90
21540;DHT22;10931;52.164;5.518;2022-08-19T01:34:09;28.40;60.90
21540;DHT22;10931;52.164;5.518;2022-08-19T01:36:38;28.50;61.70
21540;DHT22;10931;52.164;5.518;2022-08-19T01:39:07;28.40;60.90
21540;DHT22;10931;52.164;5.518;2022-08-19T01:41:54;28.40;60.90
21540;DHT22;10931;52.164;5.518;2022-08-19T01:44:21;28.40;60.80
21540;DHT22;10931;52.164;5.518;2022-08-19T01:46:49;28.40;60.90
21540;DHT22;10931;52.164;5.518;2022-08-19T01:49:20;28.40;60.80
21540;DHT22;10931;52.164;5.518;2022-08-19T01:51:47;28.40;60.90
21540;DHT22;10931;52.164;5.518;2022-08-19T01:54:17;28.40;60.80
21540;DHT22;10931;52.164;5.518;2022-08-19T01:56:45;28.40;60.80
21540;DHT22;10931;52.164;5.518;2022-08-19T01:59:17;28.40;60.80
21540;DHT22;10931;52.164;5.518;2022-08-19T02:01:44;28.30;60.70
21540;DHT22;10931;52.164;5.518;2022-08-19T02:16:54;28.30;60.70
21540;DHT22;10931;52.164;5.518;2022-08-19T02:19:19;28.30;60.70
21540;DHT22;10931;52.164;5.518;2022-08-19T02:21:45;28.30;60.70
21540;DHT22;10931;52.164;5.518;2022-08-19T02:24:11;28.30;60.70
21540;DHT22;10931;52.164;5.518;2022-08-19T02:29:59;28.30;60.70
21540;DHT22;10931;52.164;5.518;2022-08-19T02:32:29;28.30;60.70
21540;DHT22;10931;52.164;5.518;2022-08-19T02:34:56;28.30;60.70
21540;DHT22;10931;52.164;5.518;2022-08-19T02:37:21;28.30;60.70
21540;DHT22;10931;52.164;5.518;2022-08-19T02:40:06;28.20;60.60
21540;DHT22;10931;52.164;5.518;2022-08-19T03:44:11;28.00;60.30
21540;DHT22;10931;52.164;5.518;2022-08-19T03:47:16;28.00;60.30
21540;DHT22;10931;52.164;5.518;2022-08-19T04:16:47;27.90;60.30
21540;DHT22;10931;52.164;5.518;2022-08-19T04:19:26;27.90;60.30
21540;DHT22;10931;52.164;5.518;2022-08-19T04:24:40;27.90;60.30
21540;DHT22;10931;52.164;5.518;2022-08-19T06:51:12;27.40;60.10
21540;DHT22;10931;52.164;5.518;2022-08-19T06:54:09;27.40;60.20
21540;DHT22;10931;52.164;5.518;2022-08-19T06:56:59;27.40;60.20
21540;DHT22;10931;52.164;5.518;2022-08-19T06:59:39;27.40;60.20
21540;DHT22;10931;52.164;5.518;2022-08-19T07:32:09;27.40;60.30
21540;DHT22;10931;52.164;5.518;2022-08-19T07:40:47;27.30;60.30
21540;DHT22;10931;52.164;5.518;2022-08-19T08:44:18;27.40;60.80
21540;DHT22;10931;52.164;5.518;2022-08-19T08:47:06;27.30;60.80
21540;DHT22;10931;52.164;5.518;2022-08-19T08:59:16;27.30;61.00
21540;DHT22;10931;52.164;5.518;2022-08-19T09:01:58;27.40;61.10
21540;DHT22;10931;52.164;5.518;2022-08-19T09:04:25;27.30;61.00
21540;DHT22;10931;52.164;5.518;2022-08-19T09:09:33;27.30;61.00
21540;DHT22;10931;52.164;5.518;2022-08-19T09:14:53;27.40;61.10
21540;DHT22;10931;52.164;5.518;2022-08-19T09:17:25;27.40;61.10
21540;DHT22;10931;52.164;5.518;2022-08-19T09:22:35;27.40;61.20
21540;DHT22;10931;52.164;5.518;2022-08-19T09:25:04;27.40;61.20
21540;DHT22;10931;52.164;5.518;2022-08-19T09:27:31;27.40;61.20
21540;DHT22;10931;52.164;5.518;2022-08-19T09:30:01;27.40;61.30
21540;DHT22;10931;52.164;5.518;2022-08-19T09:32:27;27.40;61.20
21540;DHT22;10931;52.164;5.518;2022-08-19T09:34:53;27.40;61.20
21540;DHT22;10931;52.164;5.518;2022-08-19T09:37:26;27.40;62.10
21540;DHT22;10931;52.164;5.518;2022-08-19T09:39:53;27.40;61.20
21540;DHT22;10931;52.164;5.518;2022-08-19T09:42:22;27.40;61.30
21540;DHT22;10931;52.164;5.518;2022-08-19T09:44:47;27.40;61.30
21540;DHT22;10931;52.164;5.518;2022-08-19T09:47:14;27.40;61.20
21540;DHT22;10931;52.164;5.518;2022-08-19T09:49:41;27.40;61.30
21540;DHT22;10931;52.164;5.518;2022-08-19T09:52:11;27.40;61.30
21540;DHT22;10931;52.164;5.518;2022-08-19T09:54:38;27.40;61.30
21540;DHT22;10931;52.164;5.518;2022-08-19T09:57:04;27.40;61.30
21540;DHT22;10931;52.164;5.518;2022-08-19T09:59:30;27.40;61.30
21540;DHT22;10931;52.164;5.518;2022-08-19T10:01:55;27.40;61.20
21540;DHT22;10931;52.164;5.518;2022-08-19T10:04:21;27.40;61.30
21540;DHT22;10931;52.164;5.518;2022-08-19T10:06:49;27.50;61.30
21540;DHT22;10931;52.164;5.518;2022-08-19T10:09:16;27.40;61.20
21540;DHT22;10931;52.164;5.518;2022-08-19T10:11:44;27.50;61.30
21540;DHT22;10931;52.164;5.518;2022-08-19T10:14:14;27.50;61.30
21540;DHT22;10931;52.164;5.518;2022-08-19T10:16:40;27.40;61.20
21540;DHT22;10931;52.164;5.518;2022-08-19T10:19:07;27.50;61.30
21540;DHT22;10931;52.164;5.518;2022-08-19T10:21:37;27.50;61.30
21540;DHT22;10931;52.164;5.518;2022-08-19T10:24:05;27.50;61.30
21540;DHT22;10931;52.164;5.518;2022-08-19T10:26:34;27.50;61.30
21540;DHT22;10931;52.164;5.518;2022-08-19T10:29:02;27.50;61.30
21540;DHT22;10931;52.164;5.518;2022-08-19T10:31:32;27.50;61.20
21540;DHT22;10931;52.164;5.518;2022-08-19T10:34:00;27.50;61.20
21540;DHT22;10931;52.164;5.518;2022-08-19T10:36:29;27.50;61.20
21540;DHT22;10931;52.164;5.518;2022-08-19T10:38:57;27.50;61.20
21540;DHT22;10931;52.164;5.518;2022-08-19T10:41:26;27.50;61.20
21540;DHT22;10931;52.164;5.518;2022-08-19T10:43:58;27.50;61.20
21540;DHT22;10931;52.164;5.518;2022-08-19T10:46:26;27.50;61.20
21540;DHT22;10931;52.164;5.518;2022-08-19T10:48:53;27.60;61.30
21540;DHT22;10931;52.164;5.518;2022-08-19T10:51:21;27.60;61.30
21540;DHT22;10931;52.164;5.518;2022-08-19T10:54:06;27.60;61.30
21540;DHT22;10931;52.164;5.518;2022-08-19T10:56:32;27.60;61.20
21540;DHT22;10931;52.164;5.518;2022-08-19T10:59:23;27.60;61.20
21540;DHT22;10931;52.164;5.518;2022-08-19T11:01:50;27.60;61.20
21540;DHT22;10931;52.164;5.518;2022-08-19T11:04:18;27.60;61.30
21540;DHT22;10931;52.164;5.518;2022-08-19T11:06:45;27.60;61.30
21540;DHT22;10931;52.164;5.518;2022-08-19T11:09:14;27.60;61.20
21540;DHT22;10931;52.164;5.518;2022-08-19T11:11:40;27.60;61.20
21540;DHT22;10931;52.164;5.518;2022-08-19T11:14:09;27.60;61.20
21540;DHT22;10931;52.164;5.518;2022-08-19T11:16:36;27.70;61.20
21540;DHT22;10931;52.164;5.518;2022-08-19T11:19:03;27.60;61.10
21540;DHT22;10931;52.164;5.518;2022-08-19T11:21:32;27.70;61.20
21540;DHT22;10931;52.164;5.518;2022-08-19T11:24:03;27.70;61.10
21540;DHT22;10931;52.164;5.518;2022-08-19T11:26:30;27.70;61.20
21540;DHT22;10931;52.164;5.518;2022-08-19T11:28:57;27.70;61.10
21540;DHT22;10931;52.164;5.518;2022-08-19T11:31:27;27.70;61.20
21540;DHT22;10931;52.164;5.518;2022-08-19T11:33:53;27.70;61.20
21540;DHT22;10931;52.164;5.518;2022-08-19T11:36:20;27.70;61.10
21540;DHT22;10931;52.164;5.518;2022-08-19T11:38:50;27.80;61.20
21540;DHT22;10931;52.164;5.518;2022-08-19T11:41:17;27.70;61.10
21540;DHT22;10931;52.164;5.518;2022-08-19T11:43:44;27.80;61.20
21540;DHT22;10931;52.164;5.518;2022-08-19T11:46:14;27.80;61.20
21540;DHT22;10931;52.164;5.518;2022-08-19T11:52:01;27.80;61.20
21540;DHT22;10931;52.164;5.518;2022-08-19T11:54:26;27.80;61.20
21540;DHT22;10931;52.164;5.518;2022-08-19T11:56:57;27.80;61.20
21540;DHT22;10931;52.164;5.518;2022-08-19T12:05:55;27.90;61.30
21540;DHT22;10931;52.164;5.518;2022-08-19T12:08:31;27.90;61.30
21540;DHT22;10931;52.164;5.518;2022-08-19T12:11:40;27.90;61.20
21540;DHT22;10931;52.164;5.518;2022-08-19T12:14:13;27.90;61.20
21540;DHT22;10931;52.164;5.518;2022-08-19T12:16:48;27.90;61.20
21540;DHT22;10931;52.164;5.518;2022-08-19T12:19:15;28.00;61.10
21540;DHT22;10931;52.164;5.518;2022-08-19T12:21:41;28.00;61.30
21540;DHT22;10931;52.164;5.518;2022-08-19T12:24:06;28.00;61.30
21540;DHT22;10931;52.164;5.518;2022-08-19T12:26:32;28.00;61.30
21540;DHT22;10931;52.164;5.518;2022-08-19T12:28:59;28.00;61.30
21540;DHT22;10931;52.164;5.518;2022-08-19T12:31:30;28.00;61.30
21540;DHT22;10931;52.164;5.518;2022-08-19T12:33:56;28.00;61.30
21540;DHT22;10931;52.164;5.518;2022-08-19T12:36:22;28.00;61.30
21540;DHT22;10931;52.164;5.518;2022-08-19T12:38:48;28.10;61.40
21540;DHT22;10931;52.164;5.518;2022-08-19T12:41:16;28.00;61.30
21540;DHT22;10931;52.164;5.518;2022-08-19T12:43:44;28.10;61.40
21540;DHT22;10931;52.164;5.518;2022-08-19T12:46:12;28.10;61.40
21540;DHT22;10931;52.164;5.518;2022-08-19T12:48:39;28.10;61.40
21540;DHT22;10931;52.164;5.518;2022-08-19T12:51:16;28.10;61.40
21540;DHT22;10931;52.164;5.518;2022-08-19T12:53:44;28.10;61.40
21540;DHT22;10931;52.164;5.518;2022-08-19T12:56:11;28.10;61.40
21540;DHT22;10931;52.164;5.518;2022-08-19T12:59:00;28.10;61.40
21540;DHT22;10931;52.164;5.518;2022-08-19T13:01:31;28.20;61.50
21540;DHT22;10931;52.164;5.518;2022-08-19T13:09:31;28.20;61.70
21540;DHT22;10931;52.164;5.518;2022-08-19T13:11:59;28.20;61.70
21540;DHT22;10931;52.164;5.518;2022-08-19T13:14:39;28.20;61.80
21540;DHT22;10931;52.164;5.518;2022-08-19T13:17:38;28.20;61.80
21540;DHT22;10931;52.164;5.518;2022-08-19T13:20:04;28.30;61.90
21540;DHT22;10931;52.164;5.518;2022-08-19T13:22:36;28.20;61.90
21540;DHT22;10931;52.164;5.518;2022-08-19T13:25:04;28.20;61.80
21540;DHT22;10931;52.164;5.518;2022-08-19T13:27:30;28.20;61.90
21540;DHT22;10931;52.164;5.518;2022-08-19T13:29:56;28.30;61.90
21540;DHT22;10931;52.164;5.518;2022-08-19T13:32:40;28.20;61.80
21540;DHT22;10931;52.164;5.518;2022-08-19T13:35:24;28.30;61.90
21540;DHT22;10931;52.164;5.518;2022-08-19T13:37:50;28.30;61.80
21540;DHT22;10931;52.164;5.518;2022-08-19T13:40:18;28.30;61.80
21540;DHT22;10931;52.164;5.518;2022-08-19T13:42:46;28.30;61.80
21540;DHT22;10931;52.164;5.518;2022-08-19T13:45:13;28.30;61.90
21540;DHT22;10931;52.164;5.518;2022-08-19T13:47:40;28.30;61.90
21540;DHT22;10931;52.164;5.518;2022-08-19T13:50:14;28.30;61.80
21540;DHT22;10931;52.164;5.518;2022-08-19T13:52:41;28.30;61.80
21540;DHT22;10931;52.164;5.518;2022-08-19T13:55:08;28.30;61.80
21540;DHT22;10931;52.164;5.518;2022-08-19T13:57:34;28.30;61.80
21540;DHT22;10931;52.164;5.518;2022-08-19T14:00:01;28.40;61.90
21540;DHT22;10931;52.164;5.518;2022-08-19T14:02:27;28.30;61.80
21540;DHT22;10931;52.164;5.518;2022-08-19T14:04:53;28.40;61.90
21540;DHT22;10931;52.164;5.518;2022-08-19T14:07:18;28.40;62.00
21540;DHT22;10931;52.164;5.518;2022-08-19T14:09:44;28.40;62.00
21540;DHT22;10931;52.164;5.518;2022-08-19T14:12:12;28.40;62.00
21540;DHT22;10931;52.164;5.518;2022-08-19T14:14:56;28.40;62.00
21540;DHT22;10931;52.164;5.518;2022-08-19T14:17:24;28.40;62.00
21540;DHT22;10931;52.164;5.518;2022-08-19T14:20:02;28.40;62.00
21540;DHT22;10931;52.164;5.518;2022-08-19T14:22:33;28.40;62.00
21540;DHT22;10931;52.164;5.518;2022-08-19T14:25:01;28.40;62.10
21540;DHT22;10931;52.164;5.518;2022-08-19T14:27:36;28.40;62.10
21540;DHT22;10931;52.164;5.518;2022-08-19T14:30:19;28.40;62.10
21540;DHT22;10931;52.164;5.518;2022-08-19T14:33:04;28.40;62.20
21540;DHT22;10931;52.164;5.518;2022-08-19T14:35:50;28.40;62.30
21540;DHT22;10931;52.164;5.518;2022-08-19T14:38:26;28.40;62.30
21540;DHT22;10931;52.164;5.518;2022-08-19T14:40:54;28.40;62.30
21540;DHT22;10931;52.164;5.518;2022-08-19T14:43:22;28.40;62.40
21540;DHT22;10931;52.164;5.518;2022-08-19T14:45:48;28.40;62.50
21540;DHT22;10931;52.164;5.518;2022-08-19T14:48:22;28.40;62.50
21540;DHT22;10931;52.164;5.518;2022-08-19T14:53:57;28.50;62.60
21540;DHT22;10931;52.164;5.518;2022-08-19T14:56:32;28.50;62.70
21540;DHT22;10931;52.164;5.518;2022-08-19T14:59:05;28.50;62.80
21540;DHT22;10931;52.164;5.518;2022-08-19T15:01:31;28.50;62.80
21540;DHT22;10931;52.164;5.518;2022-08-19T15:03:57;28.50;62.90
21540;DHT22;10931;52.164;5.518;2022-08-19T15:06:26;28.50;62.90
21540;DHT22;10931;52.164;5.518;2022-08-19T15:08:55;28.50;62.90
21540;DHT22;10931;52.164;5.518;2022-08-19T15:11:26;28.50;62.90
21540;DHT22;10931;52.164;5.518;2022-08-19T15:14:00;28.50;62.90
21540;DHT22;10931;52.164;5.518;2022-08-19T15:16:29;28.50;63.00
21540;DHT22;10931;52.164;5.518;2022-08-19T15:19:07;28.50;63.10
21540;DHT22;10931;52.164;5.518;2022-08-19T15:21:32;28.50;63.10
21540;DHT22;10931;52.164;5.518;2022-08-19T15:24:00;28.50;63.10
21540;DHT22;10931;52.164;5.518;2022-08-19T15:26:29;28.50;63.10
21540;DHT22;10931;52.164;5.518;2022-08-19T15:28:58;28.50;63.10
21540;DHT22;10931;52.164;5.518;2022-08-19T15:31:25;28.50;63.90
21540;DHT22;10931;52.164;5.518;2022-08-19T15:33:50;28.50;63.10
21540;DHT22;10931;52.164;5.518;2022-08-19T15:36:16;28.50;63.10
21540;DHT22;10931;52.164;5.518;2022-08-19T15:38:42;28.50;63.20
21540;DHT22;10931;52.164;5.518;2022-08-19T15:41:19;28.50;63.20
21540;DHT22;10931;52.164;5.518;2022-08-19T15:44:08;28.50;63.20
21540;DHT22;10931;52.164;5.518;2022-08-19T15:46:36;28.50;63.20
21540;DHT22;10931;52.164;5.518;2022-08-19T15:49:13;28.50;63.30
21540;DHT22;10931;52.164;5.518;2022-08-19T15:51:40;28.50;63.30
21540;DHT22;10931;52.164;5.518;2022-08-19T15:54:10;28.50;63.30
21540;DHT22;10931;52.164;5.518;2022-08-19T15:56:36;28.50;63.40
21540;DHT22;10931;52.164;5.518;2022-08-19T15:59:21;28.50;63.40
21540;DHT22;10931;52.164;5.518;2022-08-19T16:02:05;28.60;63.50
21540;DHT22;10931;52.164;5.518;2022-08-19T16:04:51;28.50;63.40
21540;DHT22;10931;52.164;5.518;2022-08-19T16:07:35;28.60;63.50
21540;DHT22;10931;52.164;5.518;2022-08-19T16:10:00;28.60;63.50
21540;DHT22;10931;52.164;5.518;2022-08-19T16:12:26;28.60;63.50
21540;DHT22;10931;52.164;5.518;2022-08-19T16:14:55;28.60;63.50
21540;DHT22;10931;52.164;5.518;2022-08-19T16:17:20;28.60;63.50
21540;DHT22;10931;52.164;5.518;2022-08-19T16:19:47;28.60;63.50
21540;DHT22;10931;52.164;5.518;2022-08-19T16:22:12;28.60;63.50
21540;DHT22;10931;52.164;5.518;2022-08-19T16:24:38;28.60;63.50
21540;DHT22;10931;52.164;5.518;2022-08-19T16:27:04;28.60;63.50
21540;DHT22;10931;52.164;5.518;2022-08-19T16:29:30;28.60;63.60
21540;DHT22;10931;52.164;5.518;2022-08-19T16:31:55;28.60;63.60
21540;DHT22;10931;52.164;5.518;2022-08-19T16:34:23;28.60;63.60
21540;DHT22;10931;52.164;5.518;2022-08-19T16:36:49;28.60;64.40
21540;DHT22;10931;52.164;5.518;2022-08-19T16:39:16;28.60;63.60
21540;DHT22;10931;52.164;5.518;2022-08-19T16:41:44;28.60;63.60
21540;DHT22;10931;52.164;5.518;2022-08-19T16:44:13;28.60;63.60
21540;DHT22;10931;52.164;5.518;2022-08-19T16:46:39;28.60;63.70
21540;DHT22;10931;52.164;5.518;2022-08-19T16:49:07;28.60;63.70
21540;DHT22;10931;52.164;5.518;2022-08-19T16:51:36;28.60;63.80
21540;DHT22;10931;52.164;5.518;2022-08-19T16:54:02;28.60;63.80
21540;DHT22;10931;52.164;5.518;2022-08-19T16:56:29;28.60;63.80
21540;DHT22;10931;52.164;5.518;2022-08-19T16:58:55;28.60;63.80
21540;DHT22;10931;52.164;5.518;2022-08-19T17:01:24;28.60;63.80
21540;DHT22;10931;52.164;5.518;2022-08-19T17:03:56;28.60;63.80
21540;DHT22;10931;52.164;5.518;2022-08-19T17:06:26;28.60;63.80
21540;DHT22;10931;52.164;5.518;2022-08-19T17:08:55;28.60;63.80
21540;DHT22;10931;52.164;5.518;2022-08-19T17:11:25;28.60;63.80
21540;DHT22;10931;52.164;5.518;2022-08-19T17:13:52;28.60;63.80
21540;DHT22;10931;52.164;5.518;2022-08-19T17:16:23;28.60;63.80
21540;DHT22;10931;52.164;5.518;2022-08-19T17:18:51;28.60;63.80
21540;DHT22;10931;52.164;5.518;2022-08-19T17:21:26;28.60;63.80
21540;DHT22;10931;52.164;5.518;2022-08-19T17:23:53;28.60;63.90
21540;DHT22;10931;52.164;5.518;2022-08-19T17:26:19;28.60;63.90
21540;DHT22;10931;52.164;5.518;2022-08-19T17:28:47;28.60;63.90
21540;DHT22;10931;52.164;5.518;2022-08-19T17:31:17;28.60;63.90
21540;DHT22;10931;52.164;5.518;2022-08-19T17:33:44;28.60;63.90
21540;DHT22;10931;52.164;5.518;2022-08-19T17:36:10;28.60;63.90
21540;DHT22;10931;52.164;5.518;2022-08-19T17:38:36;28.60;64.00
21540;DHT22;10931;52.164;5.518;2022-08-19T17:41:02;28.60;64.00
21540;DHT22;10931;52.164;5.518;2022-08-19T17:43:31;28.60;64.00
21540;DHT22;10931;52.164;5.518;2022-08-19T17:45:58;28.60;64.10
21540;DHT22;10931;52.164;5.518;2022-08-19T17:48:30;28.60;64.10
21540;DHT22;10931;52.164;5.518;2022-08-19T17:50:57;28.60;64.10
21540;DHT22;10931;52.164;5.518;2022-08-19T17:53:26;28.60;64.10
21540;DHT22;10931;52.164;5.518;2022-08-19T17:55:51;28.60;64.10
21540;DHT22;10931;52.164;5.518;2022-08-19T17:58:22;28.60;64.20
21540;DHT22;10931;52.164;5.518;2022-08-19T18:00:48;28.60;64.20
21540;DHT22;10931;52.164;5.518;2022-08-19T18:03:14;28.60;64.20
21540;DHT22;10931;52.164;5.518;2022-08-19T18:05:46;28.60;64.20
21540;DHT22;10931;52.164;5.518;2022-08-19T18:08:14;28.60;64.30
21540;DHT22;10931;52.164;5.518;2022-08-19T18:10:44;28.60;64.40
21540;DHT22;10931;52.164;5.518;2022-08-19T18:13:09;28.60;64.40
21540;DHT22;10931;52.164;5.518;2022-08-19T18:15:37;28.60;64.40
21540;DHT22;10931;52.164;5.518;2022-08-19T18:18:03;28.60;64.40
21540;DHT22;10931;52.164;5.518;2022-08-19T18:20:29;28.60;64.50
21540;DHT22;10931;52.164;5.518;2022-08-19T18:22:55;28.60;64.40
21540;DHT22;10931;52.164;5.518;2022-08-19T18:25:26;28.60;64.60
21540;DHT22;10931;52.164;5.518;2022-08-19T18:27:54;28.60;64.50
21540;DHT22;10931;52.164;5.518;2022-08-19T18:30:29;28.60;64.60
21540;DHT22;10931;52.164;5.518;2022-08-19T18:33:03;28.60;64.60
21540;DHT22;10931;52.164;5.518;2022-08-19T18:35:44;28.60;64.60
21540;DHT22;10931;52.164;5.518;2022-08-19T18:38:12;28.60;64.60
21540;DHT22;10931;52.164;5.518;2022-08-19T18:40:57;28.60;64.70
21540;DHT22;10931;52.164;5.518;2022-08-19T18:43:43;28.60;64.70
21540;DHT22;10931;52.164;5.518;2022-08-19T18:46:28;28.60;64.70
21540;DHT22;10931;52.164;5.518;2022-08-19T18:49:24;28.60;64.70
21540;DHT22;10931;52.164;5.518;2022-08-19T18:51:50;28.60;64.70
21540;DHT22;10931;52.164;5.518;2022-08-19T18:54:17;28.60;64.70
21540;DHT22;10931;52.164;5.518;2022-08-19T18:56:43;28.60;64.70
21540;DHT22;10931;52.164;5.518;2022-08-19T18:59:13;28.60;64.70
21540;DHT22;10931;52.164;5.518;2022-08-19T19:01:42;28.60;64.70
21540;DHT22;10931;52.164;5.518;2022-08-19T19:04:20;28.60;64.80
21540;DHT22;10931;52.164;5.518;2022-08-19T19:06:49;28.60;64.90
21540;DHT22;10931;52.164;5.518;2022-08-19T19:09:23;28.60;64.90
21540;DHT22;10931;52.164;5.518;2022-08-19T19:11:54;28.60;64.90
21540;DHT22;10931;52.164;5.518;2022-08-19T19:14:24;28.60;64.90
21540;DHT22;10931;52.164;5.518;2022-08-19T19:16:52;28.60;65.00
21540;DHT22;10931;52.164;5.518;2022-08-19T19:19:18;28.60;65.00
21540;DHT22;10931;52.164;5.518;2022-08-19T19:21:51;28.60;65.00
21540;DHT22;10931;52.164;5.518;2022-08-19T19:24:23;28.60;65.00
21540;DHT22;10931;52.164;5.518;2022-08-19T19:26:53;28.60;65.10
21540;DHT22;10931;52.164;5.518;2022-08-19T19:29:22;28.60;65.60
21540;DHT22;10931;52.164;5.518;2022-08-19T19:31:50;28.60;65.10
21540;DHT22;10931;52.164;5.518;2022-08-19T19:34:26;28.60;65.10
21540;DHT22;10931;52.164;5.518;2022-08-19T19:36:57;28.60;65.20
21540;DHT22;10931;52.164;5.518;2022-08-19T19:39:22;28.60;65.20
21540;DHT22;10931;52.164;5.518;2022-08-19T19:41:48;28.60;65.20
21540;DHT22;10931;52.164;5.518;2022-08-19T19:44:14;28.60;65.20
21540;DHT22;10931;52.164;5.518;2022-08-19T19:46:40;28.60;65.20
21540;DHT22;10931;52.164;5.518;2022-08-19T19:49:20;28.60;65.20
21540;DHT22;10931;52.164;5.518;2022-08-19T19:51:49;28.60;65.20
21540;DHT22;10931;52.164;5.518;2022-08-19T19:54:17;28.60;65.20
21540;DHT22;10931;52.164;5.518;2022-08-19T19:56:45;28.60;65.30
21540;DHT22;10931;52.164;5.518;2022-08-19T19:59:13;28.60;65.30
21540;DHT22;10931;52.164;5.518;2022-08-19T20:01:41;28.60;65.30
21540;DHT22;10931;52.164;5.518;2022-08-19T20:04:13;28.60;65.30
21540;DHT22;10931;52.164;5.518;2022-08-19T20:06:39;28.50;65.20
21540;DHT22;10931;52.164;5.518;2022-08-19T20:09:08;28.50;65.20
21540;DHT22;10931;52.164;5.518;2022-08-19T20:14:06;28.50;65.20
21540;DHT22;10931;52.164;5.518;2022-08-19T20:16:35;28.60;65.30
21540;DHT22;10931;52.164;5.518;2022-08-19T20:19:02;28.50;65.20
21540;DHT22;10931;52.164;5.518;2022-08-19T20:21:34;28.60;65.30
21540;DHT22;10931;52.164;5.518;2022-08-19T20:24:03;28.50;65.30
21540;DHT22;10931;52.164;5.518;2022-08-19T20:26:32;28.50;65.30
21540;DHT22;10931;52.164;5.518;2022-08-19T20:29:03;28.50;65.30
21540;DHT22;10931;52.164;5.518;2022-08-19T20:31:31;28.50;65.30
21540;DHT22;10931;52.164;5.518;2022-08-19T20:34:01;28.50;65.30
21540;DHT22;10931;52.164;5.518;2022-08-19T20:36:29;28.50;65.30
21540;DHT22;10931;52.164;5.518;2022-08-19T20:38:58;28.50;66.10
21540;DHT22;10931;52.164;5.518;2022-08-19T20:41:27;28.50;65.30
